»·PEaware :: AAL772 KLAS-KLAX

AAL772 :: KLAS-KLAX

FLIGHT INFORMATION

Flight Status: Arrived
Operator:
American Airlines
More flights by this operator :: More flights under this callsign
Pilot: Dretana A. (25430)
Aircraft: BOEING 737-800
(B738)
More flights by this aircraft type
Origin: KLAS McCarran Intl
United States
Destination: KLAX Los Angeles Intl
United States
More flights between these airports :: More routes between these airports
Route: BOACH8 RIKII SHTNR ANJLL4
File this flight plan on PilotEdge
Remarks:
Altitude:
(Current/Filed)
24,000ft
Speed:
(Current/Filed)
350kts
Departed: 04-Oct-20 07:00 PM
Arrived: 04-Oct-20 07:41 PM
Distance/Time
Traveled:
205nm/0:41
Distance/Time
To Go:
Arrived

Flight Plot

Page will automatically refresh every two minutes.

Flight plan parsing failed; only flown route is shown


Map Options




Map Legend


Flown Route
Filed Route
Departure Airport
Arrival Airport
Navaid (VOR, NDB)
Fix

Horizontal Profiles

Position Reports

Time Latitude Longitude Heading Altitude Ground
Speed
04-Oct-20 18:30 36.085407 -115.154967 98 2188ft 0kts
04-Oct-20 18:31 36.085407 -115.154967 98 2188ft 0kts
04-Oct-20 18:32 36.085407 -115.154967 98 2188ft 0kts
04-Oct-20 18:33 36.085407 -115.154967 98 2188ft 0kts
04-Oct-20 18:34 36.085407 -115.154967 98 2188ft 0kts
04-Oct-20 18:35 36.085407 -115.154967 98 2188ft 0kts
04-Oct-20 18:36 36.085407 -115.154967 98 2188ft 0kts
04-Oct-20 18:37 36.085407 -115.154967 98 2188ft 0kts
04-Oct-20 18:38 36.085407 -115.154967 98 2188ft 0kts
04-Oct-20 18:39 36.085407 -115.154967 98 2188ft 0kts
04-Oct-20 18:40 36.085407 -115.154967 98 2188ft 0kts
04-Oct-20 18:41 36.085407 -115.154967 98 2188ft 0kts
04-Oct-20 18:42 36.085407 -115.154967 98 2188ft 0kts
04-Oct-20 18:44 36.085407 -115.154967 98 2188ft 0kts
04-Oct-20 18:45 36.085407 -115.154967 98 2188ft 0kts
04-Oct-20 18:46 36.085407 -115.154967 98 2188ft 0kts
04-Oct-20 18:47 36.085407 -115.154967 98 2188ft 0kts
04-Oct-20 18:48 36.085479 -115.155561 98 2188ft 0kts
04-Oct-20 18:49 36.085479 -115.155561 98 2188ft 0kts
04-Oct-20 18:50 36.088887 -115.155260 1 2188ft 34kts
04-Oct-20 18:51 36.097765 -115.152295 310 2188ft 14kts
04-Oct-20 18:52 36.098044 -115.152809 293 2188ft 0kts
04-Oct-20 18:53 36.098045 -115.152811 293 2188ft 0kts
04-Oct-20 18:54 36.098046 -115.152813 293 2188ft 0kts
04-Oct-20 18:55 36.098046 -115.152815 293 2188ft 0kts
04-Oct-20 18:56 36.098047 -115.152817 293 2188ft 0kts
04-Oct-20 18:58 36.098049 -115.152821 293 2188ft 0kts
04-Oct-20 18:59 36.098049 -115.152823 293 2188ft 0kts
04-Oct-20 19:00 36.088072 -115.159530 204 2189ft 138kts
04-Oct-20 19:00 36.052550 -115.179889 204 4206ft 171kts
04-Oct-20 19:02 35.999183 -115.233554 244 6259ft 263kts
04-Oct-20 19:02 35.960419 -115.296967 204 7001ft 291kts
04-Oct-20 19:03 35.878746 -115.312570 186 10708ft 304kts
04-Oct-20 19:05 35.770318 -115.305397 175 14122ft 356kts
04-Oct-20 19:05 35.685556 -115.295574 176 16810ft 374kts
04-Oct-20 19:06 35.580028 -115.298435 182 19000ft 386kts
04-Oct-20 19:08 35.453734 -115.303786 182 21487ft 395kts
04-Oct-20 19:08 35.363002 -115.323783 210 23612ft 411kts
04-Oct-20 19:09 35.276221 -115.414648 221 23997ft 407kts
04-Oct-20 19:10 35.191324 -115.506016 221 23993ft 406kts
04-Oct-20 19:11 35.107262 -115.598139 225 23993ft 406kts
04-Oct-20 19:12 35.029704 -115.698379 226 23993ft 406kts
04-Oct-20 19:13 34.952073 -115.798310 226 23993ft 406kts
04-Oct-20 19:14 34.873911 -115.897790 226 23993ft 405kts
04-Oct-20 19:15 34.795932 -115.996505 226 23993ft 405kts
04-Oct-20 19:16 34.717271 -116.096432 227 24034ft 415kts
04-Oct-20 19:17 34.637891 -116.197226 226 24060ft 413kts
04-Oct-20 19:18 34.555401 -116.302271 227 24083ft 434kts
04-Oct-20 19:19 34.472106 -116.407424 228 24081ft 430kts
04-Oct-20 19:20 34.398660 -116.519535 244 24086ft 426kts
04-Oct-20 19:21 34.346476 -116.647832 245 24076ft 418kts
04-Oct-20 19:22 34.295453 -116.774398 245 24055ft 416kts
04-Oct-20 19:23 34.245216 -116.898777 245 24031ft 412kts
04-Oct-20 19:24 34.199669 -117.022908 253 22076ft 397kts
04-Oct-20 19:25 34.166433 -117.148202 253 19813ft 384kts
04-Oct-20 19:26 34.133218 -117.269251 252 17440ft 377kts
04-Oct-20 19:27 34.100855 -117.387884 254 15220ft 364kts
04-Oct-20 19:28 34.072079 -117.502149 252 13299ft 344kts
04-Oct-20 19:29 34.034881 -117.605636 246 11400ft 332kts
04-Oct-20 19:30 34.004881 -117.706690 263 10022ft 301kts
04-Oct-20 19:31 33.995603 -117.799686 265 9518ft 266kts
04-Oct-20 19:32 33.987272 -117.886382 264 8116ft 250kts
04-Oct-20 19:33 33.980707 -117.966104 262 6827ft 235kts
04-Oct-20 19:34 33.972518 -118.043576 263 5589ft 234kts
04-Oct-20 19:35 33.964438 -118.120718 262 4360ft 230kts
04-Oct-20 19:36 33.956622 -118.195775 262 3180ft 221kts
04-Oct-20 19:37 33.949312 -118.266381 262 2038ft 196kts
04-Oct-20 19:38 33.943145 -118.325973 262 785ft 168kts
04-Oct-20 19:39 33.937956 -118.377314 263 410ft 152kts
04-Oct-20 19:40 33.934353 -118.414430 262 133ft 26kts
04-Oct-20 19:41 33.932775 -118.417667 107 134ft 12kts
04-Oct-20 19:42 33.932974 -118.414548 82 134ft 37kts
04-Oct-20 19:43 33.933345 -118.411139 84 134ft 33kts
04-Oct-20 19:44 33.932660 -118.405183 169 133ft 0kts
04-Oct-20 19:45 33.932657 -118.405182 169 134ft 0kts
04-Oct-20 19:46 33.932656 -118.405182 169 134ft 0kts
04-Oct-20 19:47 33.932654 -118.405182 169 134ft 0kts
04-Oct-20 19:48 33.932653 -118.405181 169 134ft 0kts
04-Oct-20 19:49 33.932653 -118.405181 169 134ft 0kts
04-Oct-20 19:50 33.932653 -118.405181 169 134ft 0kts
04-Oct-20 19:51 33.932653 -118.405181 169 134ft 0kts
04-Oct-20 19:52 33.932653 -118.405181 169 134ft 0kts
04-Oct-20 19:53 33.932653 -118.405181 169 134ft 0kts
04-Oct-20 19:54 33.932653 -118.405181 169 134ft 0kts

Navigation Log

Ident Type
Flight plan parsing failed, navigation log unavailable